sensor_id;sensor_type;location;lat;lon;timestamp;P1;durP1;ratioP1;P2;durP2;ratioP2
38567;SDS011;24338;48.280;10.970;2022-07-18T00:00:31;4.90;;;2.35;;
38567;SDS011;24338;48.280;10.970;2022-07-18T00:02:58;4.40;;;2.20;;
38567;SDS011;24338;48.280;10.970;2022-07-18T00:05:26;5.15;;;2.55;;
38567;SDS011;24338;48.280;10.970;2022-07-18T00:07:53;5.72;;;2.88;;
38567;SDS011;24338;48.280;10.970;2022-07-18T00:10:19;5.40;;;2.55;;
38567;SDS011;24338;48.280;10.970;2022-07-18T00:12:47;5.00;;;2.60;;
38567;SDS011;24338;48.280;10.970;2022-07-18T00:15:14;6.97;;;2.20;;
38567;SDS011;24338;48.280;10.970;2022-07-18T00:17:40;3.10;;;2.10;;
38567;SDS011;24338;48.280;10.970;2022-07-18T00:20:08;4.18;;;2.65;;
38567;SDS011;24338;48.280;10.970;2022-07-18T00:22:36;6.70;;;2.80;;
38567;SDS011;24338;48.280;10.970;2022-07-18T00:25:03;4.68;;;2.65;;
38567;SDS011;24338;48.280;10.970;2022-07-18T00:27:31;4.07;;;2.30;;
38567;SDS011;24338;48.280;10.970;2022-07-18T00:29:58;4.00;;;2.53;;
38567;SDS011;24338;48.280;10.970;2022-07-18T00:32:25;5.30;;;2.58;;
38567;SDS011;24338;48.280;10.970;2022-07-18T00:34:51;5.93;;;2.70;;
38567;SDS011;24338;48.280;10.970;2022-07-18T00:37:18;8.73;;;3.03;;
38567;SDS011;24338;48.280;10.970;2022-07-18T00:39:45;4.97;;;2.55;;
38567;SDS011;24338;48.280;10.970;2022-07-18T00:42:12;4.68;;;2.63;;
38567;SDS011;24338;48.280;10.970;2022-07-18T00:44:39;4.13;;;2.47;;
38567;SDS011;24338;48.280;10.970;2022-07-18T00:47:06;5.20;;;2.90;;
38567;SDS011;24338;48.280;10.970;2022-07-18T00:49:33;5.65;;;3.03;;
38567;SDS011;24338;48.280;10.970;2022-07-18T00:52:00;4.25;;;2.67;;
38567;SDS011;24338;48.280;10.970;2022-07-18T00:54:27;5.43;;;2.92;;
38567;SDS011;24338;48.280;10.970;2022-07-18T00:56:54;4.32;;;2.95;;
38567;SDS011;24338;48.280;10.970;2022-07-18T00:59:21;4.53;;;2.80;;
38567;SDS011;24338;48.280;10.970;2022-07-18T01:01:48;5.65;;;3.10;;
38567;SDS011;24338;48.280;10.970;2022-07-18T01:04:20;4.10;;;2.67;;
38567;SDS011;24338;48.280;10.970;2022-07-18T01:06:49;4.18;;;2.72;;
38567;SDS011;24338;48.280;10.970;2022-07-18T01:09:17;4.07;;;2.60;;
38567;SDS011;24338;48.280;10.970;2022-07-18T01:11:45;6.40;;;3.40;;
38567;SDS011;24338;48.280;10.970;2022-07-18T01:14:12;4.40;;;2.72;;
38567;SDS011;24338;48.280;10.970;2022-07-18T01:16:40;4.57;;;2.60;;
38567;SDS011;24338;48.280;10.970;2022-07-18T01:19:07;5.55;;;3.15;;
38567;SDS011;24338;48.280;10.970;2022-07-18T01:21:35;4.57;;;2.70;;
38567;SDS011;24338;48.280;10.970;2022-07-18T01:24:03;6.25;;;3.22;;
38567;SDS011;24338;48.280;10.970;2022-07-18T01:26:31;5.00;;;3.28;;
38567;SDS011;24338;48.280;10.970;2022-07-18T01:28:59;5.38;;;2.97;;
38567;SDS011;24338;48.280;10.970;2022-07-18T01:31:26;4.63;;;2.50;;
38567;SDS011;24338;48.280;10.970;2022-07-18T01:33:54;5.00;;;2.95;;
38567;SDS011;24338;48.280;10.970;2022-07-18T01:36:21;4.50;;;2.50;;
38567;SDS011;24338;48.280;10.970;2022-07-18T01:38:48;4.40;;;2.90;;
38567;SDS011;24338;48.280;10.970;2022-07-18T01:41:15;6.25;;;2.65;;
38567;SDS011;24338;48.280;10.970;2022-07-18T01:43:42;4.28;;;2.65;;
38567;SDS011;24338;48.280;10.970;2022-07-18T01:46:09;4.32;;;2.70;;
38567;SDS011;24338;48.280;10.970;2022-07-18T01:48:37;3.15;;;2.50;;
38567;SDS011;24338;48.280;10.970;2022-07-18T01:51:05;3.88;;;2.90;;
38567;SDS011;24338;48.280;10.970;2022-07-18T01:53:37;4.10;;;2.67;;
38567;SDS011;24338;48.280;10.970;2022-07-18T01:56:06;5.60;;;2.45;;
38567;SDS011;24338;48.280;10.970;2022-07-18T01:58:34;3.85;;;2.40;;
38567;SDS011;24338;48.280;10.970;2022-07-18T02:01:01;4.50;;;2.60;;
38567;SDS011;24338;48.280;10.970;2022-07-18T02:03:28;5.65;;;3.00;;
38567;SDS011;24338;48.280;10.970;2022-07-18T02:05:55;6.00;;;3.00;;
38567;SDS011;24338;48.280;10.970;2022-07-18T02:08:23;4.72;;;2.80;;
38567;SDS011;24338;48.280;10.970;2022-07-18T02:10:49;5.07;;;2.70;;
38567;SDS011;24338;48.280;10.970;2022-07-18T02:13:16;5.95;;;3.20;;
38567;SDS011;24338;48.280;10.970;2022-07-18T02:15:46;5.15;;;2.70;;
38567;SDS011;24338;48.280;10.970;2022-07-18T02:18:13;4.95;;;3.15;;
38567;SDS011;24338;48.280;10.970;2022-07-18T02:20:40;4.50;;;2.97;;
38567;SDS011;24338;48.280;10.970;2022-07-18T02:23:07;4.53;;;2.97;;
38567;SDS011;24338;48.280;10.970;2022-07-18T02:25:35;4.43;;;2.65;;
38567;SDS011;24338;48.280;10.970;2022-07-18T02:28:02;6.57;;;3.28;;
38567;SDS011;24338;48.280;10.970;2022-07-18T02:30:29;6.07;;;3.83;;
38567;SDS011;24338;48.280;10.970;2022-07-18T02:32:57;5.75;;;2.97;;
38567;SDS011;24338;48.280;10.970;2022-07-18T02:35:24;3.33;;;2.63;;
38567;SDS011;24338;48.280;10.970;2022-07-18T02:37:52;4.53;;;2.85;;
38567;SDS011;24338;48.280;10.970;2022-07-18T02:40:19;4.35;;;3.40;;
38567;SDS011;24338;48.280;10.970;2022-07-18T02:42:46;6.38;;;3.33;;
38567;SDS011;24338;48.280;10.970;2022-07-18T02:45:13;5.20;;;2.95;;
38567;SDS011;24338;48.280;10.970;2022-07-18T02:47:40;5.57;;;3.13;;
38567;SDS011;24338;48.280;10.970;2022-07-18T02:50:07;6.47;;;3.05;;
38567;SDS011;24338;48.280;10.970;2022-07-18T02:52:35;5.03;;;3.17;;
38567;SDS011;24338;48.280;10.970;2022-07-18T02:55:02;4.95;;;3.28;;
38567;SDS011;24338;48.280;10.970;2022-07-18T02:57:30;5.78;;;3.90;;
38567;SDS011;24338;48.280;10.970;2022-07-18T02:59:57;6.10;;;3.38;;
38567;SDS011;24338;48.280;10.970;2022-07-18T03:02:24;5.93;;;4.20;;
38567;SDS011;24338;48.280;10.970;2022-07-18T03:04:51;5.50;;;4.20;;
38567;SDS011;24338;48.280;10.970;2022-07-18T03:07:18;6.20;;;4.03;;
38567;SDS011;24338;48.280;10.970;2022-07-18T03:09:45;7.53;;;4.80;;
38567;SDS011;24338;48.280;10.970;2022-07-18T03:12:12;7.47;;;4.10;;
38567;SDS011;24338;48.280;10.970;2022-07-18T03:14:39;8.73;;;5.65;;
38567;SDS011;24338;48.280;10.970;2022-07-18T03:17:06;6.65;;;4.22;;
38567;SDS011;24338;48.280;10.970;2022-07-18T03:19:33;7.20;;;4.80;;
38567;SDS011;24338;48.280;10.970;2022-07-18T03:22:00;9.18;;;4.97;;
38567;SDS011;24338;48.280;10.970;2022-07-18T03:24:28;8.68;;;5.03;;
38567;SDS011;24338;48.280;10.970;2022-07-18T03:26:55;7.93;;;4.28;;
38567;SDS011;24338;48.280;10.970;2022-07-18T03:29:22;8.13;;;4.60;;
38567;SDS011;24338;48.280;10.970;2022-07-18T03:31:49;7.03;;;5.03;;
38567;SDS011;24338;48.280;10.970;2022-07-18T03:34:16;7.32;;;4.25;;
38567;SDS011;24338;48.280;10.970;2022-07-18T03:36:43;6.53;;;3.90;;
38567;SDS011;24338;48.280;10.970;2022-07-18T03:39:10;6.78;;;4.13;;
38567;SDS011;24338;48.280;10.970;2022-07-18T03:41:38;6.32;;;3.83;;
38567;SDS011;24338;48.280;10.970;2022-07-18T03:44:06;7.15;;;4.65;;
38567;SDS011;24338;48.280;10.970;2022-07-18T03:46:33;5.88;;;4.22;;
38567;SDS011;24338;48.280;10.970;2022-07-18T03:49:01;6.65;;;4.45;;
38567;SDS011;24338;48.280;10.970;2022-07-18T03:51:28;7.30;;;4.75;;
38567;SDS011;24338;48.280;10.970;2022-07-18T03:53:55;8.85;;;4.82;;
38567;SDS011;24338;48.280;10.970;2022-07-18T03:56:22;8.98;;;4.78;;
38567;SDS011;24338;48.280;10.970;2022-07-18T03:58:49;6.10;;;4.40;;
38567;SDS011;24338;48.280;10.970;2022-07-18T04:01:15;6.43;;;4.97;;
38567;SDS011;24338;48.280;10.970;2022-07-18T04:03:43;6.97;;;4.25;;
38567;SDS011;24338;48.280;10.970;2022-07-18T04:06:10;6.28;;;4.38;;
38567;SDS011;24338;48.280;10.970;2022-07-18T04:08:36;5.18;;;3.67;;
38567;SDS011;24338;48.280;10.970;2022-07-18T04:11:03;6.68;;;4.40;;
38567;SDS011;24338;48.280;10.970;2022-07-18T04:13:30;7.72;;;4.70;;
38567;SDS011;24338;48.280;10.970;2022-07-18T04:15:57;5.57;;;3.97;;
38567;SDS011;24338;48.280;10.970;2022-07-18T04:18:24;9.07;;;4.00;;
38567;SDS011;24338;48.280;10.970;2022-07-18T04:20:51;6.68;;;4.40;;
38567;SDS011;24338;48.280;10.970;2022-07-18T04:23:18;6.68;;;4.10;;
38567;SDS011;24338;48.280;10.970;2022-07-18T04:25:45;8.57;;;3.80;;
38567;SDS011;24338;48.280;10.970;2022-07-18T04:28:12;5.07;;;4.07;;
38567;SDS011;24338;48.280;10.970;2022-07-18T04:30:40;5.70;;;4.55;;
38567;SDS011;24338;48.280;10.970;2022-07-18T04:33:08;9.85;;;4.28;;
38567;SDS011;24338;48.280;10.970;2022-07-18T04:35:37;7.35;;;3.40;;
38567;SDS011;24338;48.280;10.970;2022-07-18T04:38:06;8.35;;;4.57;;
38567;SDS011;24338;48.280;10.970;2022-07-18T04:40:34;6.13;;;4.10;;
38567;SDS011;24338;48.280;10.970;2022-07-18T04:43:01;9.63;;;4.88;;
38567;SDS011;24338;48.280;10.970;2022-07-18T04:45:29;8.98;;;3.97;;
38567;SDS011;24338;48.280;10.970;2022-07-18T04:47:56;6.60;;;4.13;;
38567;SDS011;24338;48.280;10.970;2022-07-18T04:50:23;6.07;;;4.18;;
38567;SDS011;24338;48.280;10.970;2022-07-18T04:52:51;8.38;;;4.78;;
38567;SDS011;24338;48.280;10.970;2022-07-18T04:55:19;6.60;;;4.55;;
38567;SDS011;24338;48.280;10.970;2022-07-18T04:57:51;6.60;;;4.20;;
38567;SDS011;24338;48.280;10.970;2022-07-18T05:00:21;5.18;;;3.95;;
38567;SDS011;24338;48.280;10.970;2022-07-18T05:02:50;9.95;;;4.80;;
38567;SDS011;24338;48.280;10.970;2022-07-18T05:05:19;5.85;;;4.75;;
38567;SDS011;24338;48.280;10.970;2022-07-18T05:07:47;7.25;;;5.18;;
38567;SDS011;24338;48.280;10.970;2022-07-18T05:10:16;6.90;;;4.70;;
38567;SDS011;24338;48.280;10.970;2022-07-18T05:12:46;9.52;;;5.15;;
38567;SDS011;24338;48.280;10.970;2022-07-18T05:15:14;6.80;;;4.40;;
38567;SDS011;24338;48.280;10.970;2022-07-18T05:17:43;6.82;;;4.72;;
38567;SDS011;24338;48.280;10.970;2022-07-18T05:20:13;6.05;;;4.72;;
38567;SDS011;24338;48.280;10.970;2022-07-18T05:22:42;5.38;;;4.35;;
38567;SDS011;24338;48.280;10.970;2022-07-18T05:25:10;6.63;;;4.80;;
38567;SDS011;24338;48.280;10.970;2022-07-18T05:27:38;7.22;;;4.53;;
38567;SDS011;24338;48.280;10.970;2022-07-18T05:30:06;7.63;;;4.65;;
38567;SDS011;24338;48.280;10.970;2022-07-18T05:32:36;8.35;;;4.32;;
38567;SDS011;24338;48.280;10.970;2022-07-18T05:35:03;8.35;;;4.65;;
38567;SDS011;24338;48.280;10.970;2022-07-18T05:37:31;6.47;;;4.47;;
38567;SDS011;24338;48.280;10.970;2022-07-18T05:39:58;9.07;;;4.72;;
38567;SDS011;24338;48.280;10.970;2022-07-18T05:42:25;5.30;;;4.53;;
38567;SDS011;24338;48.280;10.970;2022-07-18T05:45:12;7.07;;;4.57;;
38567;SDS011;24338;48.280;10.970;2022-07-18T05:47:38;8.02;;;4.82;;
38567;SDS011;24338;48.280;10.970;2022-07-18T05:50:06;7.65;;;4.60;;
38567;SDS011;24338;48.280;10.970;2022-07-18T05:52:34;6.10;;;4.30;;
38567;SDS011;24338;48.280;10.970;2022-07-18T05:55:01;6.85;;;4.70;;
38567;SDS011;24338;48.280;10.970;2022-07-18T05:57:29;6.32;;;4.90;;
38567;SDS011;24338;48.280;10.970;2022-07-18T05:59:55;7.10;;;4.53;;
38567;SDS011;24338;48.280;10.970;2022-07-18T06:02:22;6.05;;;4.25;;
38567;SDS011;24338;48.280;10.970;2022-07-18T06:04:49;6.13;;;4.13;;
38567;SDS011;24338;48.280;10.970;2022-07-18T06:07:36;7.88;;;4.40;;
38567;SDS011;24338;48.280;10.970;2022-07-18T06:10:03;6.38;;;3.92;;
38567;SDS011;24338;48.280;10.970;2022-07-18T06:12:31;7.57;;;3.88;;
38567;SDS011;24338;48.280;10.970;2022-07-18T06:14:59;6.38;;;3.60;;
38567;SDS011;24338;48.280;10.970;2022-07-18T06:17:27;4.88;;;3.42;;
38567;SDS011;24338;48.280;10.970;2022-07-18T06:19:55;7.60;;;3.88;;
38567;SDS011;24338;48.280;10.970;2022-07-18T06:22:23;5.20;;;3.10;;
38567;SDS011;24338;48.280;10.970;2022-07-18T06:24:50;6.07;;;3.70;;
38567;SDS011;24338;48.280;10.970;2022-07-18T06:27:17;6.63;;;3.17;;
38567;SDS011;24338;48.280;10.970;2022-07-18T06:29:44;5.82;;;3.38;;
38567;SDS011;24338;48.280;10.970;2022-07-18T06:32:11;4.53;;;3.30;;
38567;SDS011;24338;48.280;10.970;2022-07-18T06:34:38;6.72;;;3.42;;
38567;SDS011;24338;48.280;10.970;2022-07-18T06:37:05;9.38;;;3.65;;
38567;SDS011;24338;48.280;10.970;2022-07-18T06:39:32;5.40;;;3.10;;
38567;SDS011;24338;48.280;10.970;2022-07-18T06:41:59;4.97;;;2.75;;
38567;SDS011;24338;48.280;10.970;2022-07-18T06:44:25;6.15;;;3.38;;
38567;SDS011;24338;48.280;10.970;2022-07-18T06:46:52;4.82;;;3.13;;
38567;SDS011;24338;48.280;10.970;2022-07-18T06:49:19;4.45;;;2.58;;
38567;SDS011;24338;48.280;10.970;2022-07-18T06:51:46;4.45;;;3.20;;
38567;SDS011;24338;48.280;10.970;2022-07-18T06:54:13;5.55;;;2.85;;
38567;SDS011;24338;48.280;10.970;2022-07-18T06:56:40;4.80;;;2.47;;
38567;SDS011;24338;48.280;10.970;2022-07-18T06:59:07;5.03;;;2.63;;
38567;SDS011;24338;48.280;10.970;2022-07-18T07:01:33;4.20;;;2.75;;
38567;SDS011;24338;48.280;10.970;2022-07-18T07:04:01;3.53;;;2.53;;
38567;SDS011;24338;48.280;10.970;2022-07-18T07:06:28;7.18;;;2.63;;
38567;SDS011;24338;48.280;10.970;2022-07-18T07:08:56;4.72;;;2.80;;
38567;SDS011;24338;48.280;10.970;2022-07-18T07:11:22;4.85;;;2.38;;
38567;SDS011;24338;48.280;10.970;2022-07-18T07:13:49;4.25;;;2.10;;
38567;SDS011;24338;48.280;10.970;2022-07-18T07:16:16;4.88;;;2.50;;
38567;SDS011;24338;48.280;10.970;2022-07-18T07:18:43;4.78;;;2.20;;
38567;SDS011;24338;48.280;10.970;2022-07-18T07:21:10;4.25;;;2.55;;
38567;SDS011;24338;48.280;10.970;2022-07-18T07:23:45;3.88;;;2.35;;
38567;SDS011;24338;48.280;10.970;2022-07-18T07:26:11;6.57;;;2.55;;
38567;SDS011;24338;48.280;10.970;2022-07-18T07:28:38;3.83;;;2.17;;
38567;SDS011;24338;48.280;10.970;2022-07-18T07:31:05;3.13;;;1.85;;
38567;SDS011;24338;48.280;10.970;2022-07-18T07:33:32;2.90;;;1.63;;
38567;SDS011;24338;48.280;10.970;2022-07-18T07:36:00;4.65;;;2.17;;
38567;SDS011;24338;48.280;10.970;2022-07-18T07:38:27;3.55;;;2.05;;
38567;SDS011;24338;48.280;10.970;2022-07-18T07:40:55;4.90;;;2.97;;
38567;SDS011;24338;48.280;10.970;2022-07-18T07:43:22;5.38;;;2.35;;
38567;SDS011;24338;48.280;10.970;2022-07-18T07:45:52;4.45;;;2.13;;
38567;SDS011;24338;48.280;10.970;2022-07-18T07:48:19;3.60;;;1.83;;
38567;SDS011;24338;48.280;10.970;2022-07-18T07:50:46;4.63;;;2.03;;
38567;SDS011;24338;48.280;10.970;2022-07-18T07:53:13;4.78;;;1.88;;
38567;SDS011;24338;48.280;10.970;2022-07-18T07:55:40;3.50;;;1.88;;
38567;SDS011;24338;48.280;10.970;2022-07-18T07:58:07;3.70;;;1.65;;
38567;SDS011;24338;48.280;10.970;2022-07-18T08:00:35;3.40;;;1.98;;
38567;SDS011;24338;48.280;10.970;2022-07-18T08:03:04;4.90;;;2.20;;
38567;SDS011;24338;48.280;10.970;2022-07-18T08:05:34;3.78;;;1.98;;
38567;SDS011;24338;48.280;10.970;2022-07-18T08:08:04;9.93;;;2.53;;
38567;SDS011;24338;48.280;10.970;2022-07-18T08:10:31;4.68;;;1.65;;
38567;SDS011;24338;48.280;10.970;2022-07-18T08:13:07;2.63;;;1.70;;
38567;SDS011;24338;48.280;10.970;2022-07-18T08:15:35;4.13;;;1.80;;
38567;SDS011;24338;48.280;10.970;2022-07-18T08:18:02;2.97;;;1.95;;
38567;SDS011;24338;48.280;10.970;2022-07-18T08:20:29;3.22;;;1.70;;
38567;SDS011;24338;48.280;10.970;2022-07-18T08:22:58;3.85;;;2.00;;
38567;SDS011;24338;48.280;10.970;2022-07-18T08:25:31;6.07;;;2.13;;
38567;SDS011;24338;48.280;10.970;2022-07-18T08:28:01;4.20;;;1.95;;
38567;SDS011;24338;48.280;10.970;2022-07-18T08:30:29;4.07;;;1.48;;
38567;SDS011;24338;48.280;10.970;2022-07-18T08:32:56;3.95;;;2.05;;
38567;SDS011;24338;48.280;10.970;2022-07-18T08:35:25;2.80;;;1.40;;
38567;SDS011;24338;48.280;10.970;2022-07-18T08:37:51;2.97;;;1.45;;
38567;SDS011;24338;48.280;10.970;2022-07-18T08:40:18;3.72;;;1.65;;
38567;SDS011;24338;48.280;10.970;2022-07-18T08:42:47;2.88;;;1.40;;
38567;SDS011;24338;48.280;10.970;2022-07-18T08:45:38;2.67;;;1.45;;
38567;SDS011;24338;48.280;10.970;2022-07-18T08:48:06;2.80;;;1.20;;
38567;SDS011;24338;48.280;10.970;2022-07-18T08:50:33;7.30;;;1.20;;
38567;SDS011;24338;48.280;10.970;2022-07-18T08:53:01;3.17;;;0.95;;
38567;SDS011;24338;48.280;10.970;2022-07-18T08:55:28;2.17;;;0.85;;
38567;SDS011;24338;48.280;10.970;2022-07-18T08:57:54;1.73;;;0.70;;
38567;SDS011;24338;48.280;10.970;2022-07-18T09:00:21;2.50;;;0.80;;
38567;SDS011;24338;48.280;10.970;2022-07-18T09:03:01;4.97;;;0.90;;
38567;SDS011;24338;48.280;10.970;2022-07-18T09:05:30;1.87;;;1.00;;
38567;SDS011;24338;48.280;10.970;2022-07-18T09:08:13;1.65;;;0.90;;
38567;SDS011;24338;48.280;10.970;2022-07-18T09:10:50;2.33;;;0.98;;
38567;SDS011;24338;48.280;10.970;2022-07-18T09:13:24;1.73;;;0.80;;
38567;SDS011;24338;48.280;10.970;2022-07-18T09:18:32;2.10;;;0.85;;
38567;SDS011;24338;48.280;10.970;2022-07-18T09:21:04;2.45;;;1.00;;
38567;SDS011;24338;48.280;10.970;2022-07-18T09:23:40;2.10;;;0.90;;
38567;SDS011;24338;48.280;10.970;2022-07-18T09:26:08;2.47;;;1.05;;
38567;SDS011;24338;48.280;10.970;2022-07-18T09:28:49;1.90;;;0.77;;
38567;SDS011;24338;48.280;10.970;2022-07-18T09:31:40;1.50;;;0.85;;
38567;SDS011;24338;48.280;10.970;2022-07-18T09:34:15;1.65;;;0.80;;
38567;SDS011;24338;48.280;10.970;2022-07-18T09:37:02;1.58;;;0.70;;
38567;SDS011;24338;48.280;10.970;2022-07-18T09:39:31;3.15;;;0.70;;
38567;SDS011;24338;48.280;10.970;2022-07-18T09:42:16;1.58;;;0.80;;
38567;SDS011;24338;48.280;10.970;2022-07-18T09:44:58;1.52;;;0.80;;
38567;SDS011;24338;48.280;10.970;2022-07-18T09:47:26;2.78;;;1.17;;
38567;SDS011;24338;48.280;10.970;2022-07-18T09:49:53;1.75;;;0.70;;
38567;SDS011;24338;48.280;10.970;2022-07-18T09:52:21;4.57;;;1.27;;
38567;SDS011;24338;48.280;10.970;2022-07-18T09:54:48;1.92;;;0.95;;
38567;SDS011;24338;48.280;10.970;2022-07-18T09:57:25;2.03;;;0.93;;
38567;SDS011;24338;48.280;10.970;2022-07-18T09:59:53;3.53;;;0.90;;
38567;SDS011;24338;48.280;10.970;2022-07-18T10:02:20;2.33;;;0.90;;
38567;SDS011;24338;48.280;10.970;2022-07-18T10:04:47;1.70;;;0.75;;
38567;SDS011;24338;48.280;10.970;2022-07-18T10:07:15;3.28;;;0.90;;
38567;SDS011;24338;48.280;10.970;2022-07-18T10:09:42;3.50;;;0.88;;
38567;SDS011;24338;48.280;10.970;2022-07-18T10:12:12;1.15;;;0.52;;
38567;SDS011;24338;48.280;10.970;2022-07-18T10:14:41;1.45;;;0.70;;
38567;SDS011;24338;48.280;10.970;2022-07-18T10:17:10;3.00;;;0.90;;
38567;SDS011;24338;48.280;10.970;2022-07-18T10:19:36;2.13;;;0.85;;
38567;SDS011;24338;48.280;10.970;2022-07-18T10:22:04;2.05;;;0.70;;
38567;SDS011;24338;48.280;10.970;2022-07-18T10:24:33;1.20;;;0.50;;
38567;SDS011;24338;48.280;10.970;2022-07-18T10:27:15;3.13;;;0.63;;
38567;SDS011;24338;48.280;10.970;2022-07-18T10:32:34;1.38;;;0.70;;
38567;SDS011;24338;48.280;10.970;2022-07-18T10:35:01;3.10;;;0.70;;
38567;SDS011;24338;48.280;10.970;2022-07-18T10:37:29;3.67;;;0.90;;
38567;SDS011;24338;48.280;10.970;2022-07-18T10:45:55;1.35;;;0.50;;
38567;SDS011;24338;48.280;10.970;2022-07-18T10:51:07;3.72;;;0.80;;
38567;SDS011;24338;48.280;10.970;2022-07-18T10:58:57;1.55;;;0.70;;
38567;SDS011;24338;48.280;10.970;2022-07-18T11:01:25;2.28;;;0.70;;
38567;SDS011;24338;48.280;10.970;2022-07-18T11:04:21;2.58;;;0.75;;
38567;SDS011;24338;48.280;10.970;2022-07-18T11:07:14;3.00;;;0.70;;
38567;SDS011;24338;48.280;10.970;2022-07-18T11:09:42;2.70;;;0.70;;
38567;SDS011;24338;48.280;10.970;2022-07-18T11:12:30;2.30;;;0.90;;
38567;SDS011;24338;48.280;10.970;2022-07-18T11:15:05;1.85;;;0.93;;
38567;SDS011;24338;48.280;10.970;2022-07-18T11:20:39;1.97;;;0.50;;
38567;SDS011;24338;48.280;10.970;2022-07-18T11:23:20;2.33;;;0.50;;
38567;SDS011;24338;48.280;10.970;2022-07-18T11:25:53;1.75;;;0.70;;
38567;SDS011;24338;48.280;10.970;2022-07-18T11:28:24;3.78;;;0.73;;
38567;SDS011;24338;48.280;10.970;2022-07-18T11:30:59;2.40;;;0.70;;
38567;SDS011;24338;48.280;10.970;2022-07-18T11:33:32;1.63;;;0.75;;
38567;SDS011;24338;48.280;10.970;2022-07-18T11:38:50;2.53;;;0.47;;
38567;SDS011;24338;48.280;10.970;2022-07-18T11:41:17;1.80;;;0.43;;
38567;SDS011;24338;48.280;10.970;2022-07-18T11:43:46;1.40;;;0.45;;
38567;SDS011;24338;48.280;10.970;2022-07-18T11:46:16;2.00;;;0.60;;
38567;SDS011;24338;48.280;10.970;2022-07-18T11:48:47;1.48;;;0.70;;
38567;SDS011;24338;48.280;10.970;2022-07-18T11:51:23;3.95;;;0.73;;
38567;SDS011;24338;48.280;10.970;2022-07-18T11:53:50;1.33;;;0.63;;
38567;SDS011;24338;48.280;10.970;2022-07-18T11:56:19;3.03;;;0.98;;
38567;SDS011;24338;48.280;10.970;2022-07-18T11:58:48;1.75;;;0.60;;
38567;SDS011;24338;48.280;10.970;2022-07-18T12:01:16;2.15;;;0.80;;
38567;SDS011;24338;48.280;10.970;2022-07-18T12:03:44;2.90;;;0.73;;
38567;SDS011;24338;48.280;10.970;2022-07-18T12:06:18;2.15;;;0.70;;
38567;SDS011;24338;48.280;10.970;2022-07-18T12:08:47;1.95;;;0.70;;
38567;SDS011;24338;48.280;10.970;2022-07-18T12:11:34;2.15;;;0.63;;
38567;SDS011;24338;48.280;10.970;2022-07-18T12:14:16;2.53;;;0.50;;
38567;SDS011;24338;48.280;10.970;2022-07-18T12:16:47;1.58;;;0.65;;
38567;SDS011;24338;48.280;10.970;2022-07-18T12:19:31;1.05;;;0.50;;
38567;SDS011;24338;48.280;10.970;2022-07-18T12:22:10;2.00;;;0.57;;
38567;SDS011;24338;48.280;10.970;2022-07-18T12:30:11;1.10;;;0.68;;
38567;SDS011;24338;48.280;10.970;2022-07-18T12:32:45;2.05;;;0.80;;
38567;SDS011;24338;48.280;10.970;2022-07-18T12:35:26;1.88;;;0.70;;
38567;SDS011;24338;48.280;10.970;2022-07-18T12:38:07;2.60;;;0.65;;
38567;SDS011;24338;48.280;10.970;2022-07-18T12:43:30;1.80;;;0.80;;
38567;SDS011;24338;48.280;10.970;2022-07-18T12:45:59;3.45;;;0.70;;
38567;SDS011;24338;48.280;10.970;2022-07-18T12:48:29;1.00;;;0.50;;
38567;SDS011;24338;48.280;10.970;2022-07-18T12:51:07;1.77;;;0.75;;
38567;SDS011;24338;48.280;10.970;2022-07-18T12:53:37;0.80;;;0.38;;
38567;SDS011;24338;48.280;10.970;2022-07-18T12:56:07;1.38;;;0.50;;
38567;SDS011;24338;48.280;10.970;2022-07-18T12:58:34;4.95;;;0.55;;
38567;SDS011;24338;48.280;10.970;2022-07-18T13:01:01;1.67;;;0.60;;
38567;SDS011;24338;48.280;10.970;2022-07-18T13:03:32;1.25;;;0.60;;
38567;SDS011;24338;48.280;10.970;2022-07-18T13:06:00;1.65;;;0.68;;
38567;SDS011;24338;48.280;10.970;2022-07-18T13:08:27;2.53;;;0.85;;
38567;SDS011;24338;48.280;10.970;2022-07-18T13:10:57;1.17;;;0.80;;
38567;SDS011;24338;48.280;10.970;2022-07-18T13:13:24;1.33;;;0.50;;
38567;SDS011;24338;48.280;10.970;2022-07-18T13:15:51;2.22;;;0.50;;
38567;SDS011;24338;48.280;10.970;2022-07-18T13:18:19;1.25;;;0.65;;
38567;SDS011;24338;48.280;10.970;2022-07-18T13:20:46;1.67;;;0.50;;
38567;SDS011;24338;48.280;10.970;2022-07-18T13:23:13;1.92;;;0.50;;
38567;SDS011;24338;48.280;10.970;2022-07-18T13:25:41;1.88;;;0.60;;
38567;SDS011;24338;48.280;10.970;2022-07-18T13:28:08;1.83;;;0.80;;
38567;SDS011;24338;48.280;10.970;2022-07-18T13:30:36;4.15;;;0.80;;
38567;SDS011;24338;48.280;10.970;2022-07-18T13:33:06;1.52;;;0.68;;
38567;SDS011;24338;48.280;10.970;2022-07-18T13:35:33;0.98;;;0.50;;
38567;SDS011;24338;48.280;10.970;2022-07-18T13:38:00;2.35;;;0.63;;
38567;SDS011;24338;48.280;10.970;2022-07-18T13:40:27;1.88;;;0.47;;
38567;SDS011;24338;48.280;10.970;2022-07-18T13:42:54;1.52;;;0.63;;
38567;SDS011;24338;48.280;10.970;2022-07-18T13:45:21;1.50;;;0.57;;
38567;SDS011;24338;48.280;10.970;2022-07-18T13:47:48;2.28;;;0.50;;
38567;SDS011;24338;48.280;10.970;2022-07-18T13:50:15;1.92;;;0.63;;
38567;SDS011;24338;48.280;10.970;2022-07-18T13:52:42;1.52;;;0.68;;
38567;SDS011;24338;48.280;10.970;2022-07-18T13:55:09;1.08;;;0.50;;
38567;SDS011;24338;48.280;10.970;2022-07-18T13:57:37;4.90;;;0.65;;
38567;SDS011;24338;48.280;10.970;2022-07-18T14:00:05;0.98;;;0.55;;
38567;SDS011;24338;48.280;10.970;2022-07-18T14:02:34;1.85;;;0.60;;
38567;SDS011;24338;48.280;10.970;2022-07-18T14:05:02;1.52;;;0.60;;
38567;SDS011;24338;48.280;10.970;2022-07-18T14:07:40;3.22;;;0.60;;
38567;SDS011;24338;48.280;10.970;2022-07-18T14:10:09;1.25;;;0.60;;
38567;SDS011;24338;48.280;10.970;2022-07-18T14:12:36;2.40;;;0.70;;
38567;SDS011;24338;48.280;10.970;2022-07-18T14:15:03;1.02;;;0.50;;
38567;SDS011;24338;48.280;10.970;2022-07-18T14:17:30;3.60;;;0.60;;
38567;SDS011;24338;48.280;10.970;2022-07-18T14:19:59;1.65;;;0.70;;
38567;SDS011;24338;48.280;10.970;2022-07-18T14:22:26;2.20;;;0.68;;
38567;SDS011;24338;48.280;10.970;2022-07-18T14:24:53;2.25;;;0.68;;
38567;SDS011;24338;48.280;10.970;2022-07-18T14:27:20;0.98;;;0.40;;
38567;SDS011;24338;48.280;10.970;2022-07-18T14:29:50;1.67;;;0.67;;
38567;SDS011;24338;48.280;10.970;2022-07-18T14:32:17;1.00;;;0.57;;
38567;SDS011;24338;48.280;10.970;2022-07-18T14:34:44;2.33;;;0.57;;
38567;SDS011;24338;48.280;10.970;2022-07-18T14:37:11;1.25;;;0.47;;
38567;SDS011;24338;48.280;10.970;2022-07-18T14:39:38;1.25;;;0.55;;
38567;SDS011;24338;48.280;10.970;2022-07-18T14:42:05;1.23;;;0.50;;
38567;SDS011;24338;48.280;10.970;2022-07-18T14:44:33;2.83;;;0.40;;
38567;SDS011;24338;48.280;10.970;2022-07-18T14:46:59;2.72;;;0.40;;
38567;SDS011;24338;48.280;10.970;2022-07-18T14:49:26;1.73;;;0.60;;
38567;SDS011;24338;48.280;10.970;2022-07-18T14:51:53;2.08;;;0.50;;
38567;SDS011;24338;48.280;10.970;2022-07-18T14:54:22;2.13;;;0.60;;
38567;SDS011;24338;48.280;10.970;2022-07-18T14:56:49;1.75;;;0.60;;
38567;SDS011;24338;48.280;10.970;2022-07-18T14:59:18;2.25;;;0.55;;
38567;SDS011;24338;48.280;10.970;2022-07-18T15:01:45;2.33;;;0.77;;
38567;SDS011;24338;48.280;10.970;2022-07-18T15:04:14;1.50;;;0.70;;
38567;SDS011;24338;48.280;10.970;2022-07-18T15:06:44;1.77;;;0.63;;
38567;SDS011;24338;48.280;10.970;2022-07-18T15:09:11;1.38;;;0.70;;
38567;SDS011;24338;48.280;10.970;2022-07-18T15:11:41;2.47;;;0.70;;
38567;SDS011;24338;48.280;10.970;2022-07-18T15:14:08;3.20;;;0.70;;
38567;SDS011;24338;48.280;10.970;2022-07-18T15:16:35;2.13;;;0.60;;